<?xml version="1.0" encoding="UTF-8" standalone="no" ?>
<gpx xmlns="http://www.topografix.com/GPX/1/1" xmlns:xsi="http://www.w3.org/2001/XMLSchema-instance" xsi:schemaLocation="http://www.topografix.com/GPX/1/1 http://www.topografix.com/GPX/1/1/gpx.xsd" version="1.1" creator="VisuGPX - https://www.visugpx.com">
  <metadata>
    <name>Castelnau Barbarens 2018-05-02</name>
    <desc><![CDATA[
]]></desc>
  </metadata>
  <trk>
    <name><![CDATA[Castelnau Barbarens 2018-05-02]]></name>
    <trkseg>
      <trkpt lat="43.57577" lon="0.72489">
        <ele>219.5</ele>
        <time>2018-05-02T08:20:26Z</time>
      </trkpt>
      <trkpt lat="43.57577" lon="0.72489">
        <ele>219.5</ele>
        <time>2018-05-02T08:20:27Z</time>
      </trkpt>
      <trkpt lat="43.57602" lon="0.72527">
        <ele>218.1</ele>
        <time>2018-05-02T08:32:47Z</time>
      </trkpt>
      <trkpt lat="43.57615" lon="0.72574">
        <ele>213.2</ele>
        <time>2018-05-02T08:33:27Z</time>
      </trkpt>
      <trkpt lat="43.57642" lon="0.72608">
        <ele>208.9</ele>
        <time>2018-05-02T08:33:59Z</time>
      </trkpt>
      <trkpt lat="43.57666" lon="0.72646">
        <ele>206.8</ele>
        <time>2018-05-02T08:34:32Z</time>
      </trkpt>
      <trkpt lat="43.57674" lon="0.72695">
        <ele>208.6</ele>
        <time>2018-05-02T08:35:08Z</time>
      </trkpt>
      <trkpt lat="43.57672" lon="0.72745">
        <ele>211.6</ele>
        <time>2018-05-02T08:35:39Z</time>
      </trkpt>
      <trkpt lat="43.57681" lon="0.72795">
        <ele>212.3</ele>
        <time>2018-05-02T08:36:09Z</time>
      </trkpt>
      <trkpt lat="43.57673" lon="0.72844">
        <ele>212.2</ele>
        <time>2018-05-02T08:36:40Z</time>
      </trkpt>
      <trkpt lat="43.57667" lon="0.72894">
        <ele>214.3</ele>
        <time>2018-05-02T08:37:13Z</time>
      </trkpt>
      <trkpt lat="43.57649" lon="0.72937">
        <ele>215.9</ele>
        <time>2018-05-02T08:37:41Z</time>
      </trkpt>
      <trkpt lat="43.5763" lon="0.7298">
        <ele>217</ele>
        <time>2018-05-02T08:38:14Z</time>
      </trkpt>
      <trkpt lat="43.57613" lon="0.73025">
        <ele>218.2</ele>
        <time>2018-05-02T08:38:46Z</time>
      </trkpt>
      <trkpt lat="43.57597" lon="0.7307">
        <ele>218.4</ele>
        <time>2018-05-02T08:39:11Z</time>
      </trkpt>
      <trkpt lat="43.57581" lon="0.73114">
        <ele>217.9</ele>
        <time>2018-05-02T08:39:41Z</time>
      </trkpt>
      <trkpt lat="43.57558" lon="0.73154">
        <ele>217</ele>
        <time>2018-05-02T08:40:13Z</time>
      </trkpt>
      <trkpt lat="43.57548" lon="0.73202">
        <ele>216.8</ele>
        <time>2018-05-02T08:40:45Z</time>
      </trkpt>
      <trkpt lat="43.57539" lon="0.7325">
        <ele>216.4</ele>
        <time>2018-05-02T08:41:13Z</time>
      </trkpt>
      <trkpt lat="43.57533" lon="0.733">
        <ele>217.1</ele>
        <time>2018-05-02T08:41:43Z</time>
      </trkpt>
      <trkpt lat="43.57543" lon="0.73348">
        <ele>221.3</ele>
        <time>2018-05-02T08:42:20Z</time>
      </trkpt>
      <trkpt lat="43.57576" lon="0.73369">
        <ele>222.9</ele>
        <time>2018-05-02T08:42:44Z</time>
      </trkpt>
      <trkpt lat="43.57593" lon="0.73414">
        <ele>221.6</ele>
        <time>2018-05-02T08:43:13Z</time>
      </trkpt>
      <trkpt lat="43.57571" lon="0.73454">
        <ele>218.4</ele>
        <time>2018-05-02T08:43:45Z</time>
      </trkpt>
      <trkpt lat="43.57566" lon="0.73504">
        <ele>212.5</ele>
        <time>2018-05-02T08:44:16Z</time>
      </trkpt>
      <trkpt lat="43.5756" lon="0.73554">
        <ele>203.4</ele>
        <time>2018-05-02T08:44:50Z</time>
      </trkpt>
      <trkpt lat="43.57594" lon="0.73572">
        <ele>196.6</ele>
        <time>2018-05-02T08:45:24Z</time>
      </trkpt>
      <trkpt lat="43.57631" lon="0.73573">
        <ele>192.7</ele>
        <time>2018-05-02T08:45:59Z</time>
      </trkpt>
      <trkpt lat="43.57666" lon="0.73584">
        <ele>188.2</ele>
        <time>2018-05-02T08:46:33Z</time>
      </trkpt>
      <trkpt lat="43.57693" lon="0.73618">
        <ele>184.5</ele>
        <time>2018-05-02T08:47:13Z</time>
      </trkpt>
      <trkpt lat="43.57729" lon="0.73619">
        <ele>182.9</ele>
        <time>2018-05-02T08:47:36Z</time>
      </trkpt>
      <trkpt lat="43.57764" lon="0.73608">
        <ele>181.7</ele>
        <time>2018-05-02T08:48:02Z</time>
      </trkpt>
      <trkpt lat="43.57799" lon="0.73597">
        <ele>180.4</ele>
        <time>2018-05-02T08:48:29Z</time>
      </trkpt>
      <trkpt lat="43.57835" lon="0.73583">
        <ele>179</ele>
        <time>2018-05-02T08:48:54Z</time>
      </trkpt>
      <trkpt lat="43.57869" lon="0.73598">
        <ele>177.7</ele>
        <time>2018-05-02T08:49:23Z</time>
      </trkpt>
      <trkpt lat="43.57903" lon="0.73617">
        <ele>175.3</ele>
        <time>2018-05-02T08:49:51Z</time>
      </trkpt>
      <trkpt lat="43.57937" lon="0.73634">
        <ele>173.7</ele>
        <time>2018-05-02T08:50:20Z</time>
      </trkpt>
      <trkpt lat="43.57969" lon="0.73659">
        <ele>172.6</ele>
        <time>2018-05-02T08:50:50Z</time>
      </trkpt>
      <trkpt lat="43.58005" lon="0.73669">
        <ele>171.2</ele>
        <time>2018-05-02T08:51:25Z</time>
      </trkpt>
      <trkpt lat="43.58028" lon="0.7363">
        <ele>170.4</ele>
        <time>2018-05-02T08:51:56Z</time>
      </trkpt>
      <trkpt lat="43.58059" lon="0.73603">
        <ele>175.4</ele>
        <time>2018-05-02T08:52:37Z</time>
      </trkpt>
      <trkpt lat="43.58094" lon="0.73586">
        <ele>179.8</ele>
        <time>2018-05-02T08:53:12Z</time>
      </trkpt>
      <trkpt lat="43.58125" lon="0.73559">
        <ele>183.4</ele>
        <time>2018-05-02T08:53:46Z</time>
      </trkpt>
      <trkpt lat="43.58159" lon="0.7354">
        <ele>182.4</ele>
        <time>2018-05-02T08:54:17Z</time>
      </trkpt>
      <trkpt lat="43.58192" lon="0.73518">
        <ele>181.1</ele>
        <time>2018-05-02T08:54:44Z</time>
      </trkpt>
      <trkpt lat="43.58223" lon="0.73493">
        <ele>178.5</ele>
        <time>2018-05-02T08:55:13Z</time>
      </trkpt>
      <trkpt lat="43.58258" lon="0.73476">
        <ele>174.6</ele>
        <time>2018-05-02T08:55:41Z</time>
      </trkpt>
      <trkpt lat="43.58293" lon="0.7346">
        <ele>170.4</ele>
        <time>2018-05-02T08:56:08Z</time>
      </trkpt>
      <trkpt lat="43.58305" lon="0.73412">
        <ele>163.5</ele>
        <time>2018-05-02T08:58:33Z</time>
      </trkpt>
      <trkpt lat="43.58337" lon="0.73388">
        <ele>161</ele>
        <time>2018-05-02T08:59:10Z</time>
      </trkpt>
      <trkpt lat="43.58371" lon="0.73369">
        <ele>157.4</ele>
        <time>2018-05-02T08:59:42Z</time>
      </trkpt>
      <trkpt lat="43.58405" lon="0.73351">
        <ele>154.5</ele>
        <time>2018-05-02T09:00:17Z</time>
      </trkpt>
      <trkpt lat="43.58439" lon="0.7333">
        <ele>153.6</ele>
        <time>2018-05-02T09:00:44Z</time>
      </trkpt>
      <trkpt lat="43.58473" lon="0.73312">
        <ele>151.8</ele>
        <time>2018-05-02T09:01:19Z</time>
      </trkpt>
      <trkpt lat="43.58506" lon="0.73292">
        <ele>150.7</ele>
        <time>2018-05-02T09:01:51Z</time>
      </trkpt>
      <trkpt lat="43.58539" lon="0.7327">
        <ele>149.3</ele>
        <time>2018-05-02T09:02:26Z</time>
      </trkpt>
      <trkpt lat="43.58572" lon="0.73246">
        <ele>148.4</ele>
        <time>2018-05-02T09:02:55Z</time>
      </trkpt>
      <trkpt lat="43.58605" lon="0.73222">
        <ele>149</ele>
        <time>2018-05-02T09:03:31Z</time>
      </trkpt>
      <trkpt lat="43.5864" lon="0.73206">
        <ele>148.6</ele>
        <time>2018-05-02T09:04:04Z</time>
      </trkpt>
      <trkpt lat="43.58665" lon="0.73168">
        <ele>148.3</ele>
        <time>2018-05-02T09:04:34Z</time>
      </trkpt>
      <trkpt lat="43.58688" lon="0.73129">
        <ele>148.5</ele>
        <time>2018-05-02T09:05:02Z</time>
      </trkpt>
      <trkpt lat="43.58712" lon="0.73092">
        <ele>148.4</ele>
        <time>2018-05-02T09:05:32Z</time>
      </trkpt>
      <trkpt lat="43.58749" lon="0.7309">
        <ele>148.4</ele>
        <time>2018-05-02T09:06:18Z</time>
      </trkpt>
      <trkpt lat="43.58769" lon="0.73133">
        <ele>147.8</ele>
        <time>2018-05-02T09:06:47Z</time>
      </trkpt>
      <trkpt lat="43.58792" lon="0.73173">
        <ele>147.3</ele>
        <time>2018-05-02T09:07:17Z</time>
      </trkpt>
      <trkpt lat="43.58807" lon="0.73219">
        <ele>147.3</ele>
        <time>2018-05-02T09:07:48Z</time>
      </trkpt>
      <trkpt lat="43.58826" lon="0.73262">
        <ele>147.7</ele>
        <time>2018-05-02T09:08:18Z</time>
      </trkpt>
      <trkpt lat="43.58853" lon="0.73294">
        <ele>148.1</ele>
        <time>2018-05-02T09:08:45Z</time>
      </trkpt>
      <trkpt lat="43.58883" lon="0.73324">
        <ele>149.1</ele>
        <time>2018-05-02T09:09:16Z</time>
      </trkpt>
      <trkpt lat="43.5891" lon="0.73357">
        <ele>149.5</ele>
        <time>2018-05-02T09:09:46Z</time>
      </trkpt>
      <trkpt lat="43.5893" lon="0.734">
        <ele>148.5</ele>
        <time>2018-05-02T09:10:16Z</time>
      </trkpt>
      <trkpt lat="43.58946" lon="0.73447">
        <ele>148.1</ele>
        <time>2018-05-02T09:10:42Z</time>
      </trkpt>
      <trkpt lat="43.58961" lon="0.73493">
        <ele>147.5</ele>
        <time>2018-05-02T09:11:11Z</time>
      </trkpt>
      <trkpt lat="43.58979" lon="0.73537">
        <ele>147.8</ele>
        <time>2018-05-02T09:11:37Z</time>
      </trkpt>
      <trkpt lat="43.59007" lon="0.73568">
        <ele>148.3</ele>
        <time>2018-05-02T09:12:11Z</time>
      </trkpt>
      <trkpt lat="43.59042" lon="0.73584">
        <ele>148.6</ele>
        <time>2018-05-02T09:14:01Z</time>
      </trkpt>
      <trkpt lat="43.59076" lon="0.73599">
        <ele>148.7</ele>
        <time>2018-05-02T09:14:33Z</time>
      </trkpt>
      <trkpt lat="43.59107" lon="0.73625">
        <ele>149.2</ele>
        <time>2018-05-02T09:15:00Z</time>
      </trkpt>
      <trkpt lat="43.59143" lon="0.73637">
        <ele>149.6</ele>
        <time>2018-05-02T09:15:37Z</time>
      </trkpt>
      <trkpt lat="43.59177" lon="0.73656">
        <ele>150.1</ele>
        <time>2018-05-02T09:16:06Z</time>
      </trkpt>
      <trkpt lat="43.59209" lon="0.73681">
        <ele>149.6</ele>
        <time>2018-05-02T09:16:36Z</time>
      </trkpt>
      <trkpt lat="43.5924" lon="0.73709">
        <ele>149.1</ele>
        <time>2018-05-02T09:17:07Z</time>
      </trkpt>
      <trkpt lat="43.59267" lon="0.73742">
        <ele>147.7</ele>
        <time>2018-05-02T09:17:41Z</time>
      </trkpt>
      <trkpt lat="43.59297" lon="0.73772">
        <ele>147.7</ele>
        <time>2018-05-02T09:18:08Z</time>
      </trkpt>
      <trkpt lat="43.59329" lon="0.73796">
        <ele>147.6</ele>
        <time>2018-05-02T09:18:34Z</time>
      </trkpt>
      <trkpt lat="43.59359" lon="0.73823">
        <ele>147.6</ele>
        <time>2018-05-02T09:19:04Z</time>
      </trkpt>
      <trkpt lat="43.59386" lon="0.73859">
        <ele>147.5</ele>
        <time>2018-05-02T09:19:32Z</time>
      </trkpt>
      <trkpt lat="43.59417" lon="0.73887">
        <ele>147.6</ele>
        <time>2018-05-02T09:20:00Z</time>
      </trkpt>
      <trkpt lat="43.59437" lon="0.73928">
        <ele>147.7</ele>
        <time>2018-05-02T09:20:29Z</time>
      </trkpt>
      <trkpt lat="43.59465" lon="0.73963">
        <ele>147.7</ele>
        <time>2018-05-02T09:20:56Z</time>
      </trkpt>
      <trkpt lat="43.59494" lon="0.73992">
        <ele>147.5</ele>
        <time>2018-05-02T09:21:23Z</time>
      </trkpt>
      <trkpt lat="43.59521" lon="0.74027">
        <ele>147.8</ele>
        <time>2018-05-02T09:21:52Z</time>
      </trkpt>
      <trkpt lat="43.5955" lon="0.74056">
        <ele>147.3</ele>
        <time>2018-05-02T09:24:06Z</time>
      </trkpt>
      <trkpt lat="43.59527" lon="0.74096">
        <ele>145.7</ele>
        <time>2018-05-02T09:24:45Z</time>
      </trkpt>
      <trkpt lat="43.59504" lon="0.74134">
        <ele>144.6</ele>
        <time>2018-05-02T09:25:14Z</time>
      </trkpt>
      <trkpt lat="43.59478" lon="0.7417">
        <ele>144.1</ele>
        <time>2018-05-02T09:25:46Z</time>
      </trkpt>
      <trkpt lat="43.59453" lon="0.74207">
        <ele>144.2</ele>
        <time>2018-05-02T09:26:17Z</time>
      </trkpt>
      <trkpt lat="43.5943" lon="0.74245">
        <ele>144.5</ele>
        <time>2018-05-02T09:26:49Z</time>
      </trkpt>
      <trkpt lat="43.59403" lon="0.74278">
        <ele>144.8</ele>
        <time>2018-05-02T09:27:16Z</time>
      </trkpt>
      <trkpt lat="43.59379" lon="0.74315">
        <ele>144.7</ele>
        <time>2018-05-02T09:27:49Z</time>
      </trkpt>
      <trkpt lat="43.59356" lon="0.74353">
        <ele>144.6</ele>
        <time>2018-05-02T09:28:16Z</time>
      </trkpt>
      <trkpt lat="43.59331" lon="0.7439">
        <ele>145.2</ele>
        <time>2018-05-02T09:28:45Z</time>
      </trkpt>
      <trkpt lat="43.59307" lon="0.74428">
        <ele>148</ele>
        <time>2018-05-02T09:29:18Z</time>
      </trkpt>
      <trkpt lat="43.59302" lon="0.74478">
        <ele>151.7</ele>
        <time>2018-05-02T09:29:50Z</time>
      </trkpt>
      <trkpt lat="43.59331" lon="0.74508">
        <ele>153.9</ele>
        <time>2018-05-02T09:30:14Z</time>
      </trkpt>
      <trkpt lat="43.59363" lon="0.7453">
        <ele>155.6</ele>
        <time>2018-05-02T09:30:55Z</time>
      </trkpt>
      <trkpt lat="43.5939" lon="0.74566">
        <ele>156.7</ele>
        <time>2018-05-02T09:31:30Z</time>
      </trkpt>
      <trkpt lat="43.59415" lon="0.74604">
        <ele>156.8</ele>
        <time>2018-05-02T09:31:59Z</time>
      </trkpt>
      <trkpt lat="43.59438" lon="0.74642">
        <ele>156.1</ele>
        <time>2018-05-02T09:32:28Z</time>
      </trkpt>
      <trkpt lat="43.5946" lon="0.74683">
        <ele>155.7</ele>
        <time>2018-05-02T09:33:00Z</time>
      </trkpt>
      <trkpt lat="43.59433" lon="0.74716">
        <ele>157.1</ele>
        <time>2018-05-02T09:33:37Z</time>
      </trkpt>
      <trkpt lat="43.59403" lon="0.74746">
        <ele>159.4</ele>
        <time>2018-05-02T09:34:09Z</time>
      </trkpt>
      <trkpt lat="43.59376" lon="0.74781">
        <ele>164.1</ele>
        <time>2018-05-02T09:34:46Z</time>
      </trkpt>
      <trkpt lat="43.59346" lon="0.74809">
        <ele>165.9</ele>
        <time>2018-05-02T09:35:16Z</time>
      </trkpt>
      <trkpt lat="43.59315" lon="0.74837">
        <ele>167</ele>
        <time>2018-05-02T09:35:48Z</time>
      </trkpt>
      <trkpt lat="43.59289" lon="0.74873">
        <ele>168.4</ele>
        <time>2018-05-02T09:36:18Z</time>
      </trkpt>
      <trkpt lat="43.59257" lon="0.74899">
        <ele>171.8</ele>
        <time>2018-05-02T09:36:51Z</time>
      </trkpt>
      <trkpt lat="43.59227" lon="0.74928">
        <ele>177.5</ele>
        <time>2018-05-02T09:37:24Z</time>
      </trkpt>
      <trkpt lat="43.59197" lon="0.74958">
        <ele>181.6</ele>
        <time>2018-05-02T09:38:01Z</time>
      </trkpt>
      <trkpt lat="43.59168" lon="0.74989">
        <ele>184.7</ele>
        <time>2018-05-02T09:38:33Z</time>
      </trkpt>
      <trkpt lat="43.5914" lon="0.75022">
        <ele>188.7</ele>
        <time>2018-05-02T09:39:06Z</time>
      </trkpt>
      <trkpt lat="43.5911" lon="0.75051">
        <ele>192.5</ele>
        <time>2018-05-02T09:39:35Z</time>
      </trkpt>
      <trkpt lat="43.59086" lon="0.75089">
        <ele>195</ele>
        <time>2018-05-02T09:40:05Z</time>
      </trkpt>
      <trkpt lat="43.5908" lon="0.7514">
        <ele>195.7</ele>
        <time>2018-05-02T09:40:34Z</time>
      </trkpt>
      <trkpt lat="43.59069" lon="0.75187">
        <ele>196.3</ele>
        <time>2018-05-02T09:41:00Z</time>
      </trkpt>
      <trkpt lat="43.59058" lon="0.75235">
        <ele>197</ele>
        <time>2018-05-02T09:41:33Z</time>
      </trkpt>
      <trkpt lat="43.59035" lon="0.75273">
        <ele>197</ele>
        <time>2018-05-02T09:42:07Z</time>
      </trkpt>
      <trkpt lat="43.59013" lon="0.75314">
        <ele>197.2</ele>
        <time>2018-05-02T09:42:35Z</time>
      </trkpt>
      <trkpt lat="43.58994" lon="0.75357">
        <ele>197.8</ele>
        <time>2018-05-02T09:43:08Z</time>
      </trkpt>
      <trkpt lat="43.58984" lon="0.75405">
        <ele>197.9</ele>
        <time>2018-05-02T09:43:39Z</time>
      </trkpt>
      <trkpt lat="43.58975" lon="0.75455">
        <ele>198</ele>
        <time>2018-05-02T09:44:07Z</time>
      </trkpt>
      <trkpt lat="43.58959" lon="0.75499">
        <ele>199.5</ele>
        <time>2018-05-02T09:44:38Z</time>
      </trkpt>
      <trkpt lat="43.58957" lon="0.75551">
        <ele>200</ele>
        <time>2018-05-02T09:45:15Z</time>
      </trkpt>
      <trkpt lat="43.58937" lon="0.75593">
        <ele>200.4</ele>
        <time>2018-05-02T09:45:39Z</time>
      </trkpt>
      <trkpt lat="43.58914" lon="0.75632">
        <ele>200.9</ele>
        <time>2018-05-02T09:46:06Z</time>
      </trkpt>
      <trkpt lat="43.58891" lon="0.7567">
        <ele>202.1</ele>
        <time>2018-05-02T09:46:36Z</time>
      </trkpt>
      <trkpt lat="43.58874" lon="0.75715">
        <ele>203</ele>
        <time>2018-05-02T09:47:01Z</time>
      </trkpt>
      <trkpt lat="43.58852" lon="0.75756">
        <ele>204.1</ele>
        <time>2018-05-02T09:47:28Z</time>
      </trkpt>
      <trkpt lat="43.58831" lon="0.75797">
        <ele>204.8</ele>
        <time>2018-05-02T09:47:53Z</time>
      </trkpt>
      <trkpt lat="43.58811" lon="0.75839">
        <ele>205.4</ele>
        <time>2018-05-02T09:48:23Z</time>
      </trkpt>
      <trkpt lat="43.58793" lon="0.75883">
        <ele>206.6</ele>
        <time>2018-05-02T09:48:47Z</time>
      </trkpt>
      <trkpt lat="43.58771" lon="0.75923">
        <ele>207</ele>
        <time>2018-05-02T09:49:17Z</time>
      </trkpt>
      <trkpt lat="43.58747" lon="0.75961">
        <ele>207.3</ele>
        <time>2018-05-02T09:49:43Z</time>
      </trkpt>
      <trkpt lat="43.58721" lon="0.75997">
        <ele>207.7</ele>
        <time>2018-05-02T09:50:07Z</time>
      </trkpt>
      <trkpt lat="43.58688" lon="0.76018">
        <ele>209.4</ele>
        <time>2018-05-02T09:50:37Z</time>
      </trkpt>
      <trkpt lat="43.58657" lon="0.76046">
        <ele>211.8</ele>
        <time>2018-05-02T09:51:06Z</time>
      </trkpt>
      <trkpt lat="43.58623" lon="0.76064">
        <ele>214.9</ele>
        <time>2018-05-02T09:51:35Z</time>
      </trkpt>
      <trkpt lat="43.58589" lon="0.76088">
        <ele>219</ele>
        <time>2018-05-02T09:52:09Z</time>
      </trkpt>
      <trkpt lat="43.58554" lon="0.76105">
        <ele>221</ele>
        <time>2018-05-02T09:52:29Z</time>
      </trkpt>
      <trkpt lat="43.58522" lon="0.76131">
        <ele>222.7</ele>
        <time>2018-05-02T09:52:54Z</time>
      </trkpt>
      <trkpt lat="43.58495" lon="0.76166">
        <ele>224.9</ele>
        <time>2018-05-02T09:53:25Z</time>
      </trkpt>
      <trkpt lat="43.58468" lon="0.762">
        <ele>226.1</ele>
        <time>2018-05-02T09:53:48Z</time>
      </trkpt>
      <trkpt lat="43.58441" lon="0.76234">
        <ele>228.2</ele>
        <time>2018-05-02T09:54:20Z</time>
      </trkpt>
      <trkpt lat="43.58416" lon="0.76199">
        <ele>236.9</ele>
        <time>2018-05-02T09:57:37Z</time>
      </trkpt>
      <trkpt lat="43.5838" lon="0.76207">
        <ele>241.9</ele>
        <time>2018-05-02T09:59:59Z</time>
      </trkpt>
      <trkpt lat="43.58361" lon="0.7625">
        <ele>244.1</ele>
        <time>2018-05-02T10:00:58Z</time>
      </trkpt>
      <trkpt lat="43.58339" lon="0.76293">
        <ele>245.4</ele>
        <time>2018-05-02T10:01:22Z</time>
      </trkpt>
      <trkpt lat="43.58315" lon="0.7633">
        <ele>247</ele>
        <time>2018-05-02T10:02:02Z</time>
      </trkpt>
      <trkpt lat="43.5829" lon="0.76366">
        <ele>248.1</ele>
        <time>2018-05-02T10:02:33Z</time>
      </trkpt>
      <trkpt lat="43.58268" lon="0.76407">
        <ele>248.9</ele>
        <time>2018-05-02T10:02:58Z</time>
      </trkpt>
      <trkpt lat="43.58246" lon="0.76446">
        <ele>249.4</ele>
        <time>2018-05-02T10:03:21Z</time>
      </trkpt>
      <trkpt lat="43.58223" lon="0.76486">
        <ele>249.7</ele>
        <time>2018-05-02T10:03:44Z</time>
      </trkpt>
      <trkpt lat="43.58177" lon="0.7646">
        <ele>237.9</ele>
        <time>2018-05-02T10:07:47Z</time>
      </trkpt>
      <trkpt lat="43.58145" lon="0.76439">
        <ele>237.4</ele>
        <time>2018-05-02T10:07:59Z</time>
      </trkpt>
      <trkpt lat="43.58115" lon="0.76409">
        <ele>236.5</ele>
        <time>2018-05-02T10:08:12Z</time>
      </trkpt>
      <trkpt lat="43.581" lon="0.76363">
        <ele>234.8</ele>
        <time>2018-05-02T10:08:31Z</time>
      </trkpt>
      <trkpt lat="43.58054" lon="0.7629">
        <ele>233.6</ele>
        <time>2018-05-02T10:08:46Z</time>
      </trkpt>
      <trkpt lat="43.58024" lon="0.7626">
        <ele>232.8</ele>
        <time>2018-05-02T10:08:58Z</time>
      </trkpt>
      <trkpt lat="43.57993" lon="0.76231">
        <ele>231.3</ele>
        <time>2018-05-02T10:09:11Z</time>
      </trkpt>
      <trkpt lat="43.57965" lon="0.762">
        <ele>229.7</ele>
        <time>2018-05-02T10:09:41Z</time>
      </trkpt>
      <trkpt lat="43.57938" lon="0.76167">
        <ele>228</ele>
        <time>2018-05-02T10:10:10Z</time>
      </trkpt>
      <trkpt lat="43.57908" lon="0.7614">
        <ele>226.4</ele>
        <time>2018-05-02T10:10:39Z</time>
      </trkpt>
      <trkpt lat="43.57875" lon="0.76118">
        <ele>224.5</ele>
        <time>2018-05-02T10:11:07Z</time>
      </trkpt>
      <trkpt lat="43.57839" lon="0.76106">
        <ele>224.5</ele>
        <time>2018-05-02T10:11:35Z</time>
      </trkpt>
      <trkpt lat="43.57807" lon="0.76076">
        <ele>225.4</ele>
        <time>2018-05-02T10:12:14Z</time>
      </trkpt>
      <trkpt lat="43.57772" lon="0.7606">
        <ele>227</ele>
        <time>2018-05-02T10:12:37Z</time>
      </trkpt>
      <trkpt lat="43.57738" lon="0.76041">
        <ele>229.7</ele>
        <time>2018-05-02T10:13:05Z</time>
      </trkpt>
      <trkpt lat="43.57705" lon="0.76019">
        <ele>233.6</ele>
        <time>2018-05-02T10:13:35Z</time>
      </trkpt>
      <trkpt lat="43.5767" lon="0.76006">
        <ele>237.7</ele>
        <time>2018-05-02T10:14:06Z</time>
      </trkpt>
      <trkpt lat="43.57638" lon="0.75982">
        <ele>242.2</ele>
        <time>2018-05-02T10:14:39Z</time>
      </trkpt>
      <trkpt lat="43.57609" lon="0.7595">
        <ele>246.4</ele>
        <time>2018-05-02T10:15:10Z</time>
      </trkpt>
      <trkpt lat="43.5758" lon="0.75918">
        <ele>249.1</ele>
        <time>2018-05-02T10:15:39Z</time>
      </trkpt>
      <trkpt lat="43.57549" lon="0.7589">
        <ele>252</ele>
        <time>2018-05-02T10:16:11Z</time>
      </trkpt>
      <trkpt lat="43.57522" lon="0.75857">
        <ele>254.6</ele>
        <time>2018-05-02T10:16:43Z</time>
      </trkpt>
      <trkpt lat="43.57491" lon="0.7583">
        <ele>260.2</ele>
        <time>2018-05-02T10:18:42Z</time>
      </trkpt>
      <trkpt lat="43.5746" lon="0.75803">
        <ele>262.8</ele>
        <time>2018-05-02T10:19:24Z</time>
      </trkpt>
      <trkpt lat="43.57444" lon="0.75758">
        <ele>266.2</ele>
        <time>2018-05-02T10:19:57Z</time>
      </trkpt>
      <trkpt lat="43.57427" lon="0.75713">
        <ele>269.8</ele>
        <time>2018-05-02T10:20:31Z</time>
      </trkpt>
      <trkpt lat="43.57405" lon="0.75672">
        <ele>275.1</ele>
        <time>2018-05-02T10:21:12Z</time>
      </trkpt>
      <trkpt lat="43.57384" lon="0.75631">
        <ele>280.9</ele>
        <time>2018-05-02T10:21:52Z</time>
      </trkpt>
      <trkpt lat="43.57362" lon="0.75591">
        <ele>286.3</ele>
        <time>2018-05-02T10:22:37Z</time>
      </trkpt>
      <trkpt lat="43.57342" lon="0.7555">
        <ele>290.5</ele>
        <time>2018-05-02T10:23:04Z</time>
      </trkpt>
      <trkpt lat="43.57327" lon="0.75503">
        <ele>296.7</ele>
        <time>2018-05-02T10:23:35Z</time>
      </trkpt>
      <trkpt lat="43.57307" lon="0.75458">
        <ele>301.4</ele>
        <time>2018-05-02T10:23:57Z</time>
      </trkpt>
      <trkpt lat="43.57275" lon="0.75435">
        <ele>308.6</ele>
        <time>2018-05-02T10:24:29Z</time>
      </trkpt>
      <trkpt lat="43.57309" lon="0.7545">
        <ele>312.6</ele>
        <time>2018-05-02T10:25:19Z</time>
      </trkpt>
      <trkpt lat="43.57279" lon="0.75423">
        <ele>313.5</ele>
        <time>2018-05-02T10:27:41Z</time>
      </trkpt>
      <trkpt lat="43.57265" lon="0.75377">
        <ele>313.2</ele>
        <time>2018-05-02T10:28:12Z</time>
      </trkpt>
      <trkpt lat="43.57259" lon="0.75327">
        <ele>310.2</ele>
        <time>2018-05-02T10:28:50Z</time>
      </trkpt>
      <trkpt lat="43.57248" lon="0.75279">
        <ele>309.1</ele>
        <time>2018-05-02T10:29:20Z</time>
      </trkpt>
      <trkpt lat="43.57229" lon="0.75235">
        <ele>308.3</ele>
        <time>2018-05-02T10:29:42Z</time>
      </trkpt>
      <trkpt lat="43.57206" lon="0.75197">
        <ele>307.9</ele>
        <time>2018-05-02T10:30:08Z</time>
      </trkpt>
      <trkpt lat="43.57187" lon="0.75153">
        <ele>307.8</ele>
        <time>2018-05-02T10:30:32Z</time>
      </trkpt>
      <trkpt lat="43.57192" lon="0.75102">
        <ele>307.4</ele>
        <time>2018-05-02T10:31:01Z</time>
      </trkpt>
      <trkpt lat="43.57186" lon="0.75053">
        <ele>305.6</ele>
        <time>2018-05-02T10:31:27Z</time>
      </trkpt>
      <trkpt lat="43.5719" lon="0.75002">
        <ele>304.9</ele>
        <time>2018-05-02T10:31:53Z</time>
      </trkpt>
      <trkpt lat="43.57195" lon="0.74952">
        <ele>304</ele>
        <time>2018-05-02T10:32:23Z</time>
      </trkpt>
      <trkpt lat="43.57199" lon="0.74902">
        <ele>302.5</ele>
        <time>2018-05-02T10:32:51Z</time>
      </trkpt>
      <trkpt lat="43.57196" lon="0.74851">
        <ele>299.3</ele>
        <time>2018-05-02T10:33:18Z</time>
      </trkpt>
      <trkpt lat="43.57192" lon="0.74801">
        <ele>296.5</ele>
        <time>2018-05-02T10:33:43Z</time>
      </trkpt>
      <trkpt lat="43.57189" lon="0.74751">
        <ele>293.9</ele>
        <time>2018-05-02T10:34:12Z</time>
      </trkpt>
      <trkpt lat="43.5718" lon="0.74702">
        <ele>293.3</ele>
        <time>2018-05-02T10:34:41Z</time>
      </trkpt>
      <trkpt lat="43.57171" lon="0.74652">
        <ele>293.2</ele>
        <time>2018-05-02T10:35:07Z</time>
      </trkpt>
      <trkpt lat="43.57162" lon="0.74603">
        <ele>293.1</ele>
        <time>2018-05-02T10:35:34Z</time>
      </trkpt>
      <trkpt lat="43.57148" lon="0.74555">
        <ele>293.1</ele>
        <time>2018-05-02T10:36:01Z</time>
      </trkpt>
      <trkpt lat="43.5714" lon="0.74506">
        <ele>294.4</ele>
        <time>2018-05-02T10:36:29Z</time>
      </trkpt>
      <trkpt lat="43.5713" lon="0.74457">
        <ele>296.7</ele>
        <time>2018-05-02T10:37:01Z</time>
      </trkpt>
      <trkpt lat="43.57111" lon="0.74414">
        <ele>299.6</ele>
        <time>2018-05-02T10:37:30Z</time>
      </trkpt>
      <trkpt lat="43.57095" lon="0.74368">
        <ele>301.4</ele>
        <time>2018-05-02T10:38:08Z</time>
      </trkpt>
      <trkpt lat="43.57075" lon="0.74326">
        <ele>300.1</ele>
        <time>2018-05-02T10:38:29Z</time>
      </trkpt>
      <trkpt lat="43.57064" lon="0.74278">
        <ele>300.1</ele>
        <time>2018-05-02T10:39:02Z</time>
      </trkpt>
      <trkpt lat="43.57051" lon="0.7423">
        <ele>299.4</ele>
        <time>2018-05-02T10:39:31Z</time>
      </trkpt>
      <trkpt lat="43.57046" lon="0.7418">
        <ele>300.5</ele>
        <time>2018-05-02T10:40:03Z</time>
      </trkpt>
      <trkpt lat="43.57042" lon="0.7413">
        <ele>304.3</ele>
        <time>2018-05-02T10:40:36Z</time>
      </trkpt>
      <trkpt lat="43.57045" lon="0.74079">
        <ele>308.2</ele>
        <time>2018-05-02T10:41:09Z</time>
      </trkpt>
      <trkpt lat="43.57054" lon="0.74029">
        <ele>310.7</ele>
        <time>2018-05-02T10:41:36Z</time>
      </trkpt>
      <trkpt lat="43.57063" lon="0.73981">
        <ele>312.6</ele>
        <time>2018-05-02T10:42:05Z</time>
      </trkpt>
      <trkpt lat="43.57067" lon="0.73931">
        <ele>313.4</ele>
        <time>2018-05-02T10:42:24Z</time>
      </trkpt>
      <trkpt lat="43.57043" lon="0.7397">
        <ele>313.3</ele>
        <time>2018-05-02T10:46:46Z</time>
      </trkpt>
      <trkpt lat="43.57035" lon="0.74019">
        <ele>314.3</ele>
        <time>2018-05-02T10:47:20Z</time>
      </trkpt>
      <trkpt lat="43.57021" lon="0.74068">
        <ele>314.7</ele>
        <time>2018-05-02T10:47:52Z</time>
      </trkpt>
      <trkpt lat="43.56998" lon="0.74109">
        <ele>314.7</ele>
        <time>2018-05-02T10:48:19Z</time>
      </trkpt>
      <trkpt lat="43.56968" lon="0.74139">
        <ele>313.2</ele>
        <time>2018-05-02T10:48:48Z</time>
      </trkpt>
      <trkpt lat="43.56939" lon="0.74169">
        <ele>311.4</ele>
        <time>2018-05-02T10:49:22Z</time>
      </trkpt>
      <trkpt lat="43.56914" lon="0.74205">
        <ele>309.3</ele>
        <time>2018-05-02T10:49:52Z</time>
      </trkpt>
      <trkpt lat="43.56886" lon="0.74239">
        <ele>307.7</ele>
        <time>2018-05-02T10:50:19Z</time>
      </trkpt>
      <trkpt lat="43.56858" lon="0.74272">
        <ele>305.2</ele>
        <time>2018-05-02T10:50:46Z</time>
      </trkpt>
      <trkpt lat="43.56826" lon="0.74295">
        <ele>302.8</ele>
        <time>2018-05-02T10:51:18Z</time>
      </trkpt>
      <trkpt lat="43.56793" lon="0.74316">
        <ele>301.1</ele>
        <time>2018-05-02T10:51:49Z</time>
      </trkpt>
      <trkpt lat="43.56761" lon="0.74343">
        <ele>300</ele>
        <time>2018-05-02T10:52:25Z</time>
      </trkpt>
      <trkpt lat="43.56728" lon="0.74361">
        <ele>300.9</ele>
        <time>2018-05-02T10:53:00Z</time>
      </trkpt>
      <trkpt lat="43.56696" lon="0.74386">
        <ele>302.5</ele>
        <time>2018-05-02T10:53:29Z</time>
      </trkpt>
      <trkpt lat="43.56669" lon="0.74419">
        <ele>303.2</ele>
        <time>2018-05-02T10:53:58Z</time>
      </trkpt>
      <trkpt lat="43.56641" lon="0.74453">
        <ele>302.3</ele>
        <time>2018-05-02T10:54:28Z</time>
      </trkpt>
      <trkpt lat="43.56621" lon="0.74494">
        <ele>300.8</ele>
        <time>2018-05-02T10:55:09Z</time>
      </trkpt>
      <trkpt lat="43.56618" lon="0.74499">
        <ele>300</ele>
        <time>2018-05-02T10:55:48Z</time>
      </trkpt>
      <trkpt lat="43.56614" lon="0.7455">
        <ele>277.2</ele>
        <time>2018-05-02T11:31:50Z</time>
      </trkpt>
      <trkpt lat="43.56616" lon="0.74601">
        <ele>279.6</ele>
        <time>2018-05-02T11:36:56Z</time>
      </trkpt>
      <trkpt lat="43.56599" lon="0.74645">
        <ele>279.4</ele>
        <time>2018-05-02T11:37:59Z</time>
      </trkpt>
      <trkpt lat="43.56579" lon="0.74688">
        <ele>279</ele>
        <time>2018-05-02T11:38:34Z</time>
      </trkpt>
      <trkpt lat="43.56565" lon="0.74735">
        <ele>279</ele>
        <time>2018-05-02T11:39:10Z</time>
      </trkpt>
      <trkpt lat="43.56555" lon="0.74783">
        <ele>278.9</ele>
        <time>2018-05-02T11:39:41Z</time>
      </trkpt>
      <trkpt lat="43.56546" lon="0.74833">
        <ele>278.9</ele>
        <time>2018-05-02T11:40:16Z</time>
      </trkpt>
      <trkpt lat="43.56549" lon="0.74884">
        <ele>277</ele>
        <time>2018-05-02T11:40:46Z</time>
      </trkpt>
      <trkpt lat="43.56548" lon="0.74934">
        <ele>273.9</ele>
        <time>2018-05-02T11:41:09Z</time>
      </trkpt>
      <trkpt lat="43.56544" lon="0.74984">
        <ele>270.7</ele>
        <time>2018-05-02T11:41:35Z</time>
      </trkpt>
      <trkpt lat="43.5653" lon="0.75034">
        <ele>266.8</ele>
        <time>2018-05-02T11:42:06Z</time>
      </trkpt>
      <trkpt lat="43.56517" lon="0.75082">
        <ele>265.1</ele>
        <time>2018-05-02T11:42:35Z</time>
      </trkpt>
      <trkpt lat="43.56499" lon="0.75125">
        <ele>264.7</ele>
        <time>2018-05-02T11:43:03Z</time>
      </trkpt>
      <trkpt lat="43.56476" lon="0.75166">
        <ele>264.2</ele>
        <time>2018-05-02T11:43:48Z</time>
      </trkpt>
      <trkpt lat="43.56462" lon="0.75213">
        <ele>264.7</ele>
        <time>2018-05-02T11:44:14Z</time>
      </trkpt>
      <trkpt lat="43.56454" lon="0.75262">
        <ele>263.4</ele>
        <time>2018-05-02T11:44:42Z</time>
      </trkpt>
      <trkpt lat="43.56447" lon="0.75313">
        <ele>261.3</ele>
        <time>2018-05-02T11:45:20Z</time>
      </trkpt>
      <trkpt lat="43.56446" lon="0.75363">
        <ele>258.2</ele>
        <time>2018-05-02T11:45:52Z</time>
      </trkpt>
      <trkpt lat="43.56437" lon="0.75411">
        <ele>257.2</ele>
        <time>2018-05-02T11:46:19Z</time>
      </trkpt>
      <trkpt lat="43.56425" lon="0.75459">
        <ele>256.4</ele>
        <time>2018-05-02T11:46:59Z</time>
      </trkpt>
      <trkpt lat="43.56418" lon="0.75508">
        <ele>257.3</ele>
        <time>2018-05-02T11:47:27Z</time>
      </trkpt>
      <trkpt lat="43.56408" lon="0.75558">
        <ele>257.1</ele>
        <time>2018-05-02T11:47:56Z</time>
      </trkpt>
      <trkpt lat="43.56406" lon="0.75608">
        <ele>256.2</ele>
        <time>2018-05-02T11:48:20Z</time>
      </trkpt>
      <trkpt lat="43.5638" lon="0.75643">
        <ele>255.7</ele>
        <time>2018-05-02T11:48:50Z</time>
      </trkpt>
      <trkpt lat="43.56376" lon="0.75693">
        <ele>256.4</ele>
        <time>2018-05-02T11:49:09Z</time>
      </trkpt>
      <trkpt lat="43.5637" lon="0.75743">
        <ele>256.8</ele>
        <time>2018-05-02T11:49:29Z</time>
      </trkpt>
      <trkpt lat="43.56337" lon="0.75768">
        <ele>257.1</ele>
        <time>2018-05-02T11:50:05Z</time>
      </trkpt>
      <trkpt lat="43.56305" lon="0.75793">
        <ele>257.8</ele>
        <time>2018-05-02T11:50:32Z</time>
      </trkpt>
      <trkpt lat="43.56277" lon="0.75826">
        <ele>259.3</ele>
        <time>2018-05-02T11:51:04Z</time>
      </trkpt>
      <trkpt lat="43.56255" lon="0.75866">
        <ele>260.1</ele>
        <time>2018-05-02T11:51:34Z</time>
      </trkpt>
      <trkpt lat="43.56253" lon="0.75917">
        <ele>260</ele>
        <time>2018-05-02T11:51:56Z</time>
      </trkpt>
      <trkpt lat="43.56258" lon="0.75967">
        <ele>259.3</ele>
        <time>2018-05-02T11:52:23Z</time>
      </trkpt>
      <trkpt lat="43.56249" lon="0.76017">
        <ele>258.2</ele>
        <time>2018-05-02T11:52:50Z</time>
      </trkpt>
      <trkpt lat="43.56239" lon="0.76065">
        <ele>257.2</ele>
        <time>2018-05-02T11:53:19Z</time>
      </trkpt>
      <trkpt lat="43.5622" lon="0.76108">
        <ele>256.8</ele>
        <time>2018-05-02T11:53:48Z</time>
      </trkpt>
      <trkpt lat="43.56204" lon="0.76153">
        <ele>257.3</ele>
        <time>2018-05-02T11:54:21Z</time>
      </trkpt>
      <trkpt lat="43.56186" lon="0.76197">
        <ele>257.9</ele>
        <time>2018-05-02T11:54:52Z</time>
      </trkpt>
      <trkpt lat="43.56182" lon="0.76247">
        <ele>258.6</ele>
        <time>2018-05-02T11:55:13Z</time>
      </trkpt>
      <trkpt lat="43.5618" lon="0.76297">
        <ele>259.5</ele>
        <time>2018-05-02T11:55:38Z</time>
      </trkpt>
      <trkpt lat="43.56153" lon="0.76263">
        <ele>262</ele>
        <time>2018-05-02T11:57:50Z</time>
      </trkpt>
      <trkpt lat="43.56124" lon="0.76234">
        <ele>260.1</ele>
        <time>2018-05-02T11:58:20Z</time>
      </trkpt>
      <trkpt lat="43.56113" lon="0.76186">
        <ele>256.8</ele>
        <time>2018-05-02T11:58:53Z</time>
      </trkpt>
      <trkpt lat="43.56085" lon="0.76154">
        <ele>254.5</ele>
        <time>2018-05-02T11:59:29Z</time>
      </trkpt>
      <trkpt lat="43.56062" lon="0.76115">
        <ele>253.1</ele>
        <time>2018-05-02T12:00:00Z</time>
      </trkpt>
      <trkpt lat="43.56049" lon="0.76069">
        <ele>251</ele>
        <time>2018-05-02T12:00:30Z</time>
      </trkpt>
      <trkpt lat="43.56031" lon="0.76025">
        <ele>248.7</ele>
        <time>2018-05-02T12:01:00Z</time>
      </trkpt>
      <trkpt lat="43.56005" lon="0.75988">
        <ele>246</ele>
        <time>2018-05-02T12:01:31Z</time>
      </trkpt>
      <trkpt lat="43.55997" lon="0.7594">
        <ele>243.3</ele>
        <time>2018-05-02T12:02:00Z</time>
      </trkpt>
      <trkpt lat="43.55989" lon="0.7589">
        <ele>240.4</ele>
        <time>2018-05-02T12:02:30Z</time>
      </trkpt>
      <trkpt lat="43.55983" lon="0.7584">
        <ele>237.8</ele>
        <time>2018-05-02T12:02:58Z</time>
      </trkpt>
      <trkpt lat="43.55979" lon="0.75791">
        <ele>236</ele>
        <time>2018-05-02T12:03:32Z</time>
      </trkpt>
      <trkpt lat="43.5597" lon="0.75742">
        <ele>236.3</ele>
        <time>2018-05-02T12:03:56Z</time>
      </trkpt>
      <trkpt lat="43.55965" lon="0.75692">
        <ele>236</ele>
        <time>2018-05-02T12:04:24Z</time>
      </trkpt>
      <trkpt lat="43.55956" lon="0.75643">
        <ele>235.3</ele>
        <time>2018-05-02T12:04:55Z</time>
      </trkpt>
      <trkpt lat="43.55953" lon="0.75592">
        <ele>236</ele>
        <time>2018-05-02T12:05:25Z</time>
      </trkpt>
      <trkpt lat="43.55942" lon="0.75544">
        <ele>236.4</ele>
        <time>2018-05-02T12:05:55Z</time>
      </trkpt>
      <trkpt lat="43.55921" lon="0.75502">
        <ele>236.7</ele>
        <time>2018-05-02T12:06:19Z</time>
      </trkpt>
      <trkpt lat="43.55886" lon="0.75485">
        <ele>237.6</ele>
        <time>2018-05-02T12:06:50Z</time>
      </trkpt>
      <trkpt lat="43.55881" lon="0.75435">
        <ele>242.8</ele>
        <time>2018-05-02T12:09:43Z</time>
      </trkpt>
      <trkpt lat="43.55897" lon="0.75389">
        <ele>244.4</ele>
        <time>2018-05-02T12:10:13Z</time>
      </trkpt>
      <trkpt lat="43.55907" lon="0.75341">
        <ele>247</ele>
        <time>2018-05-02T12:10:48Z</time>
      </trkpt>
      <trkpt lat="43.55918" lon="0.75293">
        <ele>248.4</ele>
        <time>2018-05-02T12:11:14Z</time>
      </trkpt>
      <trkpt lat="43.55925" lon="0.75243">
        <ele>250.3</ele>
        <time>2018-05-02T12:11:48Z</time>
      </trkpt>
      <trkpt lat="43.55939" lon="0.75196">
        <ele>251.5</ele>
        <time>2018-05-02T12:12:22Z</time>
      </trkpt>
      <trkpt lat="43.55948" lon="0.75146">
        <ele>252.4</ele>
        <time>2018-05-02T12:12:50Z</time>
      </trkpt>
      <trkpt lat="43.55957" lon="0.75097">
        <ele>253.7</ele>
        <time>2018-05-02T12:13:15Z</time>
      </trkpt>
      <trkpt lat="43.55969" lon="0.75049">
        <ele>254.7</ele>
        <time>2018-05-02T12:13:42Z</time>
      </trkpt>
      <trkpt lat="43.55973" lon="0.74998">
        <ele>255.3</ele>
        <time>2018-05-02T12:14:01Z</time>
      </trkpt>
      <trkpt lat="43.55989" lon="0.74953">
        <ele>256.3</ele>
        <time>2018-05-02T12:14:34Z</time>
      </trkpt>
      <trkpt lat="43.56002" lon="0.74905">
        <ele>256.8</ele>
        <time>2018-05-02T12:15:03Z</time>
      </trkpt>
      <trkpt lat="43.5601" lon="0.74856">
        <ele>257.7</ele>
        <time>2018-05-02T12:15:32Z</time>
      </trkpt>
      <trkpt lat="43.56027" lon="0.74811">
        <ele>257.8</ele>
        <time>2018-05-02T12:16:00Z</time>
      </trkpt>
      <trkpt lat="43.56046" lon="0.74768">
        <ele>258.7</ele>
        <time>2018-05-02T12:16:30Z</time>
      </trkpt>
      <trkpt lat="43.56056" lon="0.74718">
        <ele>259.3</ele>
        <time>2018-05-02T12:16:55Z</time>
      </trkpt>
      <trkpt lat="43.56072" lon="0.74673">
        <ele>260.3</ele>
        <time>2018-05-02T12:17:30Z</time>
      </trkpt>
      <trkpt lat="43.56086" lon="0.74627">
        <ele>260.9</ele>
        <time>2018-05-02T12:18:05Z</time>
      </trkpt>
      <trkpt lat="43.56102" lon="0.74581">
        <ele>261.6</ele>
        <time>2018-05-02T12:18:31Z</time>
      </trkpt>
      <trkpt lat="43.56119" lon="0.74535">
        <ele>262.5</ele>
        <time>2018-05-02T12:19:02Z</time>
      </trkpt>
      <trkpt lat="43.56143" lon="0.74497">
        <ele>263</ele>
        <time>2018-05-02T12:19:33Z</time>
      </trkpt>
      <trkpt lat="43.56175" lon="0.74473">
        <ele>264.4</ele>
        <time>2018-05-02T12:20:08Z</time>
      </trkpt>
      <trkpt lat="43.56169" lon="0.74422">
        <ele>266</ele>
        <time>2018-05-02T12:24:14Z</time>
      </trkpt>
      <trkpt lat="43.56136" lon="0.74402">
        <ele>267.3</ele>
        <time>2018-05-02T12:24:47Z</time>
      </trkpt>
      <trkpt lat="43.56116" lon="0.7436">
        <ele>273.6</ele>
        <time>2018-05-02T12:25:32Z</time>
      </trkpt>
      <trkpt lat="43.56133" lon="0.74316">
        <ele>281.6</ele>
        <time>2018-05-02T12:26:20Z</time>
      </trkpt>
      <trkpt lat="43.56156" lon="0.74277">
        <ele>288.3</ele>
        <time>2018-05-02T12:27:11Z</time>
      </trkpt>
      <trkpt lat="43.56173" lon="0.74233">
        <ele>291.7</ele>
        <time>2018-05-02T12:27:52Z</time>
      </trkpt>
      <trkpt lat="43.56173" lon="0.74182">
        <ele>292.9</ele>
        <time>2018-05-02T12:28:28Z</time>
      </trkpt>
      <trkpt lat="43.56178" lon="0.74132">
        <ele>293.2</ele>
        <time>2018-05-02T12:29:01Z</time>
      </trkpt>
      <trkpt lat="43.56194" lon="0.74086">
        <ele>293.5</ele>
        <time>2018-05-02T12:29:35Z</time>
      </trkpt>
      <trkpt lat="43.56211" lon="0.74042">
        <ele>294.4</ele>
        <time>2018-05-02T12:30:12Z</time>
      </trkpt>
      <trkpt lat="43.56214" lon="0.73992">
        <ele>293.8</ele>
        <time>2018-05-02T12:30:44Z</time>
      </trkpt>
      <trkpt lat="43.56219" lon="0.73943">
        <ele>292</ele>
        <time>2018-05-02T12:31:19Z</time>
      </trkpt>
      <trkpt lat="43.56223" lon="0.73893">
        <ele>291.9</ele>
        <time>2018-05-02T12:31:58Z</time>
      </trkpt>
      <trkpt lat="43.56232" lon="0.73844">
        <ele>292.3</ele>
        <time>2018-05-02T12:32:36Z</time>
      </trkpt>
      <trkpt lat="43.56239" lon="0.73794">
        <ele>292.9</ele>
        <time>2018-05-02T12:33:11Z</time>
      </trkpt>
      <trkpt lat="43.56246" lon="0.73745">
        <ele>294.7</ele>
        <time>2018-05-02T12:33:52Z</time>
      </trkpt>
      <trkpt lat="43.56253" lon="0.73695">
        <ele>295.8</ele>
        <time>2018-05-02T12:34:28Z</time>
      </trkpt>
      <trkpt lat="43.56255" lon="0.73644">
        <ele>296.2</ele>
        <time>2018-05-02T12:35:04Z</time>
      </trkpt>
      <trkpt lat="43.56247" lon="0.73595">
        <ele>297.9</ele>
        <time>2018-05-02T12:35:35Z</time>
      </trkpt>
      <trkpt lat="43.56249" lon="0.73545">
        <ele>300.1</ele>
        <time>2018-05-02T12:36:14Z</time>
      </trkpt>
      <trkpt lat="43.56263" lon="0.73498">
        <ele>300.3</ele>
        <time>2018-05-02T12:36:46Z</time>
      </trkpt>
      <trkpt lat="43.56276" lon="0.7345">
        <ele>298.9</ele>
        <time>2018-05-02T12:37:14Z</time>
      </trkpt>
      <trkpt lat="43.56285" lon="0.73401">
        <ele>296.8</ele>
        <time>2018-05-02T12:37:46Z</time>
      </trkpt>
      <trkpt lat="43.56255" lon="0.7337">
        <ele>290</ele>
        <time>2018-05-02T12:39:58Z</time>
      </trkpt>
      <trkpt lat="43.5622" lon="0.73383">
        <ele>287.2</ele>
        <time>2018-05-02T12:40:32Z</time>
      </trkpt>
      <trkpt lat="43.56184" lon="0.73391">
        <ele>282.3</ele>
        <time>2018-05-02T12:41:06Z</time>
      </trkpt>
      <trkpt lat="43.56149" lon="0.73377">
        <ele>277.7</ele>
        <time>2018-05-02T12:41:40Z</time>
      </trkpt>
      <trkpt lat="43.56115" lon="0.73359">
        <ele>272.6</ele>
        <time>2018-05-02T12:42:12Z</time>
      </trkpt>
      <trkpt lat="43.56084" lon="0.73331">
        <ele>269.1</ele>
        <time>2018-05-02T12:42:43Z</time>
      </trkpt>
      <trkpt lat="43.56052" lon="0.73306">
        <ele>266</ele>
        <time>2018-05-02T12:43:14Z</time>
      </trkpt>
      <trkpt lat="43.56016" lon="0.733">
        <ele>263</ele>
        <time>2018-05-02T12:43:44Z</time>
      </trkpt>
      <trkpt lat="43.55979" lon="0.73295">
        <ele>260.6</ele>
        <time>2018-05-02T12:44:15Z</time>
      </trkpt>
      <trkpt lat="43.55942" lon="0.73294">
        <ele>256.5</ele>
        <time>2018-05-02T12:44:47Z</time>
      </trkpt>
      <trkpt lat="43.55907" lon="0.73288">
        <ele>252.9</ele>
        <time>2018-05-02T12:45:18Z</time>
      </trkpt>
      <trkpt lat="43.55871" lon="0.73276">
        <ele>251.1</ele>
        <time>2018-05-02T12:45:47Z</time>
      </trkpt>
      <trkpt lat="43.55841" lon="0.73247">
        <ele>250.5</ele>
        <time>2018-05-02T12:46:19Z</time>
      </trkpt>
      <trkpt lat="43.55815" lon="0.73211">
        <ele>251.1</ele>
        <time>2018-05-02T12:46:52Z</time>
      </trkpt>
      <trkpt lat="43.55795" lon="0.7317">
        <ele>251.9</ele>
        <time>2018-05-02T12:47:29Z</time>
      </trkpt>
      <trkpt lat="43.55783" lon="0.73122">
        <ele>253.4</ele>
        <time>2018-05-02T12:48:05Z</time>
      </trkpt>
      <trkpt lat="43.55795" lon="0.73074">
        <ele>250.3</ele>
        <time>2018-05-02T12:50:40Z</time>
      </trkpt>
      <trkpt lat="43.55816" lon="0.73033">
        <ele>245.8</ele>
        <time>2018-05-02T12:51:14Z</time>
      </trkpt>
      <trkpt lat="43.55839" lon="0.72994">
        <ele>240.1</ele>
        <time>2018-05-02T12:51:50Z</time>
      </trkpt>
      <trkpt lat="43.55855" lon="0.7295">
        <ele>235.9</ele>
        <time>2018-05-02T12:52:17Z</time>
      </trkpt>
      <trkpt lat="43.55872" lon="0.72905">
        <ele>231.2</ele>
        <time>2018-05-02T12:52:45Z</time>
      </trkpt>
      <trkpt lat="43.55893" lon="0.72861">
        <ele>225.6</ele>
        <time>2018-05-02T12:53:20Z</time>
      </trkpt>
      <trkpt lat="43.55908" lon="0.72814">
        <ele>222.4</ele>
        <time>2018-05-02T12:53:42Z</time>
      </trkpt>
      <trkpt lat="43.55921" lon="0.72767">
        <ele>217.9</ele>
        <time>2018-05-02T12:54:08Z</time>
      </trkpt>
      <trkpt lat="43.55917" lon="0.72717">
        <ele>215.1</ele>
        <time>2018-05-02T12:54:27Z</time>
      </trkpt>
      <trkpt lat="43.55927" lon="0.72668">
        <ele>210.9</ele>
        <time>2018-05-02T12:54:55Z</time>
      </trkpt>
      <trkpt lat="43.55937" lon="0.7262">
        <ele>207.1</ele>
        <time>2018-05-02T12:55:23Z</time>
      </trkpt>
      <trkpt lat="43.55944" lon="0.72571">
        <ele>204.1</ele>
        <time>2018-05-02T12:55:48Z</time>
      </trkpt>
      <trkpt lat="43.55957" lon="0.72525">
        <ele>201.4</ele>
        <time>2018-05-02T12:56:14Z</time>
      </trkpt>
      <trkpt lat="43.55978" lon="0.72482">
        <ele>198.1</ele>
        <time>2018-05-02T12:56:37Z</time>
      </trkpt>
      <trkpt lat="43.55999" lon="0.7244">
        <ele>195.2</ele>
        <time>2018-05-02T12:57:10Z</time>
      </trkpt>
      <trkpt lat="43.56023" lon="0.72402">
        <ele>192.7</ele>
        <time>2018-05-02T12:57:39Z</time>
      </trkpt>
      <trkpt lat="43.5604" lon="0.72355">
        <ele>189.6</ele>
        <time>2018-05-02T12:58:07Z</time>
      </trkpt>
      <trkpt lat="43.56057" lon="0.72308">
        <ele>186.7</ele>
        <time>2018-05-02T12:58:31Z</time>
      </trkpt>
      <trkpt lat="43.56087" lon="0.72281">
        <ele>184.4</ele>
        <time>2018-05-02T12:58:55Z</time>
      </trkpt>
      <trkpt lat="43.56123" lon="0.7227">
        <ele>182.2</ele>
        <time>2018-05-02T12:59:25Z</time>
      </trkpt>
      <trkpt lat="43.56129" lon="0.72324">
        <ele>181.5</ele>
        <time>2018-05-02T12:59:31Z</time>
      </trkpt>
      <trkpt lat="43.5614" lon="0.72374">
        <ele>180.8</ele>
        <time>2018-05-02T12:59:37Z</time>
      </trkpt>
      <trkpt lat="43.5615" lon="0.72423">
        <ele>179.1</ele>
        <time>2018-05-02T12:59:54Z</time>
      </trkpt>
      <trkpt lat="43.56186" lon="0.72425">
        <ele>175.3</ele>
        <time>2018-05-02T13:00:36Z</time>
      </trkpt>
      <trkpt lat="43.5622" lon="0.72445">
        <ele>173.7</ele>
        <time>2018-05-02T13:01:07Z</time>
      </trkpt>
      <trkpt lat="43.56256" lon="0.72447">
        <ele>171.3</ele>
        <time>2018-05-02T13:01:37Z</time>
      </trkpt>
      <trkpt lat="43.5629" lon="0.7243">
        <ele>170.1</ele>
        <time>2018-05-02T13:02:07Z</time>
      </trkpt>
      <trkpt lat="43.56321" lon="0.72401">
        <ele>169.9</ele>
        <time>2018-05-02T13:02:40Z</time>
      </trkpt>
      <trkpt lat="43.56352" lon="0.72375">
        <ele>171.7</ele>
        <time>2018-05-02T13:03:10Z</time>
      </trkpt>
      <trkpt lat="43.56383" lon="0.72348">
        <ele>172.3</ele>
        <time>2018-05-02T13:03:39Z</time>
      </trkpt>
      <trkpt lat="43.56413" lon="0.72317">
        <ele>171.6</ele>
        <time>2018-05-02T13:04:04Z</time>
      </trkpt>
      <trkpt lat="43.56444" lon="0.72289">
        <ele>169.5</ele>
        <time>2018-05-02T13:04:37Z</time>
      </trkpt>
      <trkpt lat="43.56476" lon="0.72266">
        <ele>165.6</ele>
        <time>2018-05-02T13:05:08Z</time>
      </trkpt>
      <trkpt lat="43.56507" lon="0.72239">
        <ele>162.5</ele>
        <time>2018-05-02T13:05:39Z</time>
      </trkpt>
      <trkpt lat="43.56536" lon="0.72208">
        <ele>161.4</ele>
        <time>2018-05-02T13:06:07Z</time>
      </trkpt>
      <trkpt lat="43.56564" lon="0.72176">
        <ele>161.9</ele>
        <time>2018-05-02T13:06:36Z</time>
      </trkpt>
      <trkpt lat="43.56588" lon="0.72139">
        <ele>164.7</ele>
        <time>2018-05-02T13:07:14Z</time>
      </trkpt>
      <trkpt lat="43.56612" lon="0.72099">
        <ele>167.8</ele>
        <time>2018-05-02T13:07:44Z</time>
      </trkpt>
      <trkpt lat="43.56634" lon="0.72059">
        <ele>167.1</ele>
        <time>2018-05-02T13:08:15Z</time>
      </trkpt>
      <trkpt lat="43.56656" lon="0.72019">
        <ele>164.4</ele>
        <time>2018-05-02T13:08:44Z</time>
      </trkpt>
      <trkpt lat="43.5669" lon="0.72001">
        <ele>162.2</ele>
        <time>2018-05-02T13:09:22Z</time>
      </trkpt>
      <trkpt lat="43.56711" lon="0.7196">
        <ele>161.2</ele>
        <time>2018-05-02T13:09:48Z</time>
      </trkpt>
      <trkpt lat="43.5674" lon="0.71927">
        <ele>159.4</ele>
        <time>2018-05-02T13:10:23Z</time>
      </trkpt>
      <trkpt lat="43.56764" lon="0.71888">
        <ele>157.9</ele>
        <time>2018-05-02T13:10:56Z</time>
      </trkpt>
      <trkpt lat="43.56792" lon="0.71855">
        <ele>156.1</ele>
        <time>2018-05-02T13:11:31Z</time>
      </trkpt>
      <trkpt lat="43.56811" lon="0.71812">
        <ele>156.7</ele>
        <time>2018-05-02T13:12:31Z</time>
      </trkpt>
      <trkpt lat="43.56787" lon="0.71774">
        <ele>160.1</ele>
        <time>2018-05-02T13:14:26Z</time>
      </trkpt>
      <trkpt lat="43.56795" lon="0.71725">
        <ele>158.6</ele>
        <time>2018-05-02T13:15:21Z</time>
      </trkpt>
      <trkpt lat="43.56823" lon="0.71695">
        <ele>158.1</ele>
        <time>2018-05-02T13:15:52Z</time>
      </trkpt>
      <trkpt lat="43.56855" lon="0.71668">
        <ele>158</ele>
        <time>2018-05-02T13:16:26Z</time>
      </trkpt>
      <trkpt lat="43.56887" lon="0.71644">
        <ele>158.4</ele>
        <time>2018-05-02T13:16:56Z</time>
      </trkpt>
      <trkpt lat="43.56915" lon="0.7161">
        <ele>158.6</ele>
        <time>2018-05-02T13:17:23Z</time>
      </trkpt>
      <trkpt lat="43.56948" lon="0.71629">
        <ele>167.3</ele>
        <time>2018-05-02T13:20:44Z</time>
      </trkpt>
      <trkpt lat="43.5698" lon="0.71654">
        <ele>168</ele>
        <time>2018-05-02T13:21:19Z</time>
      </trkpt>
      <trkpt lat="43.57011" lon="0.7168">
        <ele>169.4</ele>
        <time>2018-05-02T13:21:54Z</time>
      </trkpt>
      <trkpt lat="43.57048" lon="0.7169">
        <ele>170.4</ele>
        <time>2018-05-02T13:22:30Z</time>
      </trkpt>
      <trkpt lat="43.57085" lon="0.71694">
        <ele>171.7</ele>
        <time>2018-05-02T13:23:04Z</time>
      </trkpt>
      <trkpt lat="43.57119" lon="0.71708">
        <ele>172.6</ele>
        <time>2018-05-02T13:23:43Z</time>
      </trkpt>
      <trkpt lat="43.57156" lon="0.71708">
        <ele>174.3</ele>
        <time>2018-05-02T13:24:21Z</time>
      </trkpt>
      <trkpt lat="43.57192" lon="0.7172">
        <ele>175</ele>
        <time>2018-05-02T13:24:49Z</time>
      </trkpt>
      <trkpt lat="43.57227" lon="0.71704">
        <ele>175.6</ele>
        <time>2018-05-02T13:25:20Z</time>
      </trkpt>
      <trkpt lat="43.57255" lon="0.71737">
        <ele>176.5</ele>
        <time>2018-05-02T13:25:44Z</time>
      </trkpt>
      <trkpt lat="43.57283" lon="0.71768">
        <ele>177.8</ele>
        <time>2018-05-02T13:26:20Z</time>
      </trkpt>
      <trkpt lat="43.57318" lon="0.7178">
        <ele>178.9</ele>
        <time>2018-05-02T13:27:03Z</time>
      </trkpt>
      <trkpt lat="43.57349" lon="0.71807">
        <ele>180</ele>
        <time>2018-05-02T13:27:34Z</time>
      </trkpt>
      <trkpt lat="43.57352" lon="0.71858">
        <ele>181.1</ele>
        <time>2018-05-02T13:28:14Z</time>
      </trkpt>
      <trkpt lat="43.5737" lon="0.71903">
        <ele>182</ele>
        <time>2018-05-02T13:28:49Z</time>
      </trkpt>
      <trkpt lat="43.57392" lon="0.71943">
        <ele>183</ele>
        <time>2018-05-02T13:29:29Z</time>
      </trkpt>
      <trkpt lat="43.57413" lon="0.71985">
        <ele>184.2</ele>
        <time>2018-05-02T13:30:05Z</time>
      </trkpt>
      <trkpt lat="43.57429" lon="0.7203">
        <ele>185.3</ele>
        <time>2018-05-02T13:30:42Z</time>
      </trkpt>
      <trkpt lat="43.57451" lon="0.72069">
        <ele>185.8</ele>
        <time>2018-05-02T13:31:14Z</time>
      </trkpt>
      <trkpt lat="43.57477" lon="0.72104">
        <ele>187.6</ele>
        <time>2018-05-02T13:31:52Z</time>
      </trkpt>
      <trkpt lat="43.57491" lon="0.72151">
        <ele>189.5</ele>
        <time>2018-05-02T13:32:25Z</time>
      </trkpt>
      <trkpt lat="43.57464" lon="0.72185">
        <ele>192.6</ele>
        <time>2018-05-02T13:32:56Z</time>
      </trkpt>
      <trkpt lat="43.57432" lon="0.72212">
        <ele>198.7</ele>
        <time>2018-05-02T13:33:33Z</time>
      </trkpt>
      <trkpt lat="43.57411" lon="0.72252">
        <ele>203.8</ele>
        <time>2018-05-02T13:34:08Z</time>
      </trkpt>
      <trkpt lat="43.57387" lon="0.72291">
        <ele>208.4</ele>
        <time>2018-05-02T13:34:40Z</time>
      </trkpt>
      <trkpt lat="43.57385" lon="0.72342">
        <ele>212</ele>
        <time>2018-05-02T13:35:11Z</time>
      </trkpt>
      <trkpt lat="43.57398" lon="0.72388">
        <ele>214.9</ele>
        <time>2018-05-02T13:35:44Z</time>
      </trkpt>
      <trkpt lat="43.57427" lon="0.7236">
        <ele>220</ele>
        <time>2018-05-02T13:36:49Z</time>
      </trkpt>
      <trkpt lat="43.57445" lon="0.72315">
        <ele>222.1</ele>
        <time>2018-05-02T13:37:20Z</time>
      </trkpt>
      <trkpt lat="43.57473" lon="0.72285">
        <ele>224.6</ele>
        <time>2018-05-02T13:37:47Z</time>
      </trkpt>
      <trkpt lat="43.57497" lon="0.72324">
        <ele>240.7</ele>
        <time>2018-05-02T13:39:21Z</time>
      </trkpt>
      <trkpt lat="43.57503" lon="0.72375">
        <ele>245.7</ele>
        <time>2018-05-02T13:39:50Z</time>
      </trkpt>
      <trkpt lat="43.57534" lon="0.72403">
        <ele>252.2</ele>
        <time>2018-05-02T13:40:25Z</time>
      </trkpt>
      <trkpt lat="43.57567" lon="0.72422">
        <ele>259.4</ele>
        <time>2018-05-02T13:40:58Z</time>
      </trkpt>
      <trkpt lat="43.57572" lon="0.72472">
        <ele>265.8</ele>
        <time>2018-05-02T13:41:39Z</time>
      </trkpt>
      <trkpt lat="43.5758" lon="0.72486">
        <ele>265.7</ele>
        <time>2018-05-02T13:44:30Z</time>
      </trkpt>
    </trkseg>
  </trk>
</gpx>